createdAt,value
2022-12-18T00:00:05.170Z,17.90
2022-12-18T00:02:38.383Z,18.27
2022-12-18T00:05:10.367Z,18.97
2022-12-18T00:07:42.034Z,18.67
2022-12-18T00:10:15.292Z,21.67
2022-12-18T00:12:47.691Z,22.00
2022-12-18T00:15:18.645Z,16.27
2022-12-18T00:17:52.342Z,22.17
2022-12-18T00:20:26.840Z,19.13
2022-12-18T00:22:57.908Z,19.87
2022-12-18T00:25:29.241Z,21.00
2022-12-18T00:28:00.168Z,20.97
2022-12-18T00:30:31.732Z,19.07
2022-12-18T00:33:05.544Z,20.90
2022-12-18T00:35:36.493Z,20.43
2022-12-18T00:38:07.902Z,16.67
2022-12-18T00:40:38.913Z,20.03
2022-12-18T00:43:07.284Z,20.70
2022-12-18T00:45:38.592Z,22.70
2022-12-18T00:48:21.582Z,21.00
2022-12-18T00:50:53.178Z,21.20
2022-12-18T00:53:35.360Z,18.93
2022-12-18T00:57:18.424Z,21.20
2022-12-18T00:59:55.021Z,17.07
2022-12-18T01:02:25.765Z,23.97
2022-12-18T01:04:59.313Z,25.67
2022-12-18T01:07:30.289Z,28.13
2022-12-18T01:10:01.040Z,27.83
2022-12-18T01:12:32.165Z,23.30
2022-12-18T01:15:02.857Z,27.87
2022-12-18T01:17:33.262Z,27.00
2022-12-18T01:20:07.417Z,26.87
2022-12-18T01:22:38.244Z,29.17
2022-12-18T01:25:13.262Z,21.07
2022-12-18T01:27:45.962Z,32.37
2022-12-18T01:30:16.930Z,22.80
2022-12-18T01:32:47.805Z,30.00
2022-12-18T01:35:20.572Z,32.97
2022-12-18T01:37:51.145Z,31.83
2022-12-18T01:40:21.290Z,29.03
2022-12-18T01:42:54.747Z,32.93
2022-12-18T01:45:28.304Z,31.90
2022-12-18T01:48:01.589Z,31.90
2022-12-18T01:50:39.688Z,33.33
2022-12-18T01:53:15.047Z,32.83
2022-12-18T01:55:50.638Z,31.83
2022-12-18T01:58:22.809Z,33.13
2022-12-18T02:00:53.240Z,30.80
2022-12-18T02:03:23.981Z,27.90
2022-12-18T02:06:08.409Z,29.87
2022-12-18T02:08:51.986Z,30.57
2022-12-18T02:11:29.697Z,31.37
2022-12-18T02:14:10.461Z,27.77
2022-12-18T02:16:48.589Z,27.27
2022-12-18T02:19:38.829Z,27.30
2022-12-18T02:22:26.273Z,21.77
2022-12-18T02:25:11.264Z,20.47
2022-12-18T02:27:48.978Z,27.53
2022-12-18T02:30:22.088Z,25.00
2022-12-18T02:32:56.175Z,27.40
2022-12-18T02:35:34.849Z,23.00
2022-12-18T02:38:07.262Z,22.00
2022-12-18T02:40:39.971Z,20.10
2022-12-18T02:43:19.238Z,24.67
2022-12-18T02:45:52.505Z,19.83
2022-12-18T02:48:28.051Z,21.30
2022-12-18T02:51:08.386Z,26.43
2022-12-18T02:53:45.909Z,24.07
2022-12-18T02:56:23.704Z,24.90
2022-12-18T02:59:02.961Z,24.03
2022-12-18T03:01:40.725Z,24.93
2022-12-18T03:04:16.857Z,26.20
2022-12-18T03:06:52.208Z,15.40
2022-12-18T03:09:28.311Z,25.47
2022-12-18T03:12:18.077Z,28.37
2022-12-18T03:14:54.675Z,28.37
2022-12-18T03:17:28.888Z,23.87
2022-12-18T03:20:02.578Z,27.83
2022-12-18T03:22:36.011Z,25.63
2022-12-18T03:25:15.180Z,21.63
2022-12-18T03:27:50.695Z,21.63
2022-12-18T03:30:24.977Z,19.67
2022-12-18T03:33:07.952Z,19.67
2022-12-18T03:35:41.568Z,20.30
2022-12-18T03:38:13.050Z,14.27
2022-12-18T03:40:52.746Z,10.67
2022-12-18T03:43:31.961Z,15.63
2022-12-18T03:46:10.603Z,16.93
2022-12-18T03:48:46.190Z,21.53
2022-12-18T03:51:21.945Z,19.93
2022-12-18T03:53:59.423Z,22.07
2022-12-18T03:56:33.386Z,21.60
2022-12-18T03:59:06.699Z,22.47
2022-12-18T04:01:43.567Z,16.63
2022-12-18T04:04:15.526Z,20.37
2022-12-18T04:06:46.874Z,22.27
2022-12-18T04:09:18.231Z,21.00
2022-12-18T04:11:49.445Z,20.43
2022-12-18T04:14:20.058Z,17.30
2022-12-18T04:17:13.978Z,7.63
2022-12-18T04:19:44.678Z,15.67
2022-12-18T04:22:14.692Z,8.30
2022-12-18T04:24:44.984Z,19.43
2022-12-18T04:27:14.987Z,19.40
2022-12-18T04:29:45.325Z,21.83
2022-12-18T04:32:17.822Z,15.57
2022-12-18T04:34:48.274Z,17.60
2022-12-18T04:37:18.727Z,13.23
2022-12-18T04:39:49.042Z,13.43
2022-12-18T04:42:18.962Z,12.00
2022-12-18T04:44:49.274Z,19.27
2022-12-18T04:47:21.796Z,15.87
2022-12-18T04:49:52.112Z,23.93
2022-12-18T04:52:24.821Z,10.57
2022-12-18T04:54:55.075Z,20.70
2022-12-18T04:57:24.989Z,21.90
2022-12-18T04:59:55.240Z,24.23
2022-12-18T05:02:27.988Z,23.17
2022-12-18T05:04:58.421Z,20.40
2022-12-18T05:07:28.621Z,20.10
2022-12-18T05:09:58.901Z,16.30
2022-12-18T05:12:29.144Z,25.83
2022-12-18T05:14:59.676Z,20.90
2022-12-18T05:17:32.524Z,25.70
2022-12-18T05:20:03.091Z,23.73
2022-12-18T05:22:32.988Z,23.60
2022-12-18T05:25:03.207Z,25.53
2022-12-18T05:27:33.093Z,16.77
2022-12-18T05:30:03.259Z,22.37
2022-12-18T05:32:35.835Z,23.13
2022-12-18T05:35:06.647Z,21.97
2022-12-18T05:37:42.767Z,27.70
2022-12-18T05:40:14.918Z,21.53
2022-12-18T05:42:44.985Z,16.20
2022-12-18T05:45:15.271Z,25.27
2022-12-18T05:47:47.838Z,14.63
2022-12-18T05:50:18.222Z,20.90
2022-12-18T05:52:48.178Z,13.63
2022-12-18T05:55:18.463Z,11.87
2022-12-18T05:57:48.359Z,25.27
2022-12-18T06:00:19.961Z,24.30
2022-12-18T06:02:53.360Z,21.27
2022-12-18T06:05:23.793Z,12.00
2022-12-18T06:07:53.695Z,14.30
2022-12-18T06:10:23.981Z,12.33
2022-12-18T06:12:53.886Z,19.87
2022-12-18T06:15:24.128Z,25.90
2022-12-18T06:17:56.692Z,20.40
2022-12-18T06:20:33.116Z,23.67
2022-12-18T06:23:04.253Z,16.20
2022-12-18T06:25:34.825Z,19.47
2022-12-18T06:28:04.769Z,17.30
2022-12-18T06:30:35.496Z,16.67
2022-12-18T06:33:08.051Z,17.57
2022-12-18T06:35:38.330Z,19.20
2022-12-18T06:38:08.290Z,20.70
2022-12-18T06:40:41.221Z,21.33
2022-12-18T06:43:11.646Z,14.30
2022-12-18T06:45:42.051Z,17.17
2022-12-18T06:48:14.632Z,23.07
2022-12-18T06:50:46.098Z,24.10
2022-12-18T06:53:16.619Z,19.13
2022-12-18T06:55:47.165Z,24.77
2022-12-18T06:58:17.157Z,27.57
2022-12-18T07:00:47.825Z,27.37
2022-12-18T07:03:20.400Z,28.60
2022-12-18T07:05:50.656Z,25.27
2022-12-18T07:08:20.557Z,28.93
2022-12-18T07:10:55.906Z,29.80
2022-12-18T07:13:26.422Z,23.40
2022-12-18T07:15:56.780Z,20.37
2022-12-18T07:18:29.371Z,21.80
2022-12-18T07:20:59.980Z,23.20
2022-12-18T07:23:30.229Z,25.07
2022-12-18T07:26:04.714Z,22.27
2022-12-18T07:28:38.137Z,24.20
2022-12-18T07:31:09.526Z,24.13
2022-12-18T07:33:42.790Z,24.77
2022-12-18T07:36:13.903Z,14.97
2022-12-18T07:38:44.117Z,26.20
2022-12-18T07:41:16.401Z,28.83
2022-12-18T07:43:46.305Z,22.77
2022-12-18T07:46:17.810Z,26.03
2022-12-18T07:48:50.644Z,25.80
2022-12-18T07:51:21.888Z,25.83
2022-12-18T07:53:52.449Z,26.93
2022-12-18T07:56:29.201Z,25.07
2022-12-18T07:59:00.763Z,22.77
2022-12-18T08:01:31.472Z,25.60
2022-12-18T08:04:04.075Z,21.60
2022-12-18T08:06:34.493Z,18.60
2022-12-18T08:09:04.489Z,25.30
2022-12-18T08:11:34.910Z,20.97
2022-12-18T08:14:04.853Z,23.23
2022-12-18T08:16:35.195Z,20.80
2022-12-18T08:19:07.718Z,24.30
2022-12-18T08:21:38.068Z,24.13
2022-12-18T08:24:09.107Z,27.17
2022-12-18T08:26:39.434Z,22.90
2022-12-18T08:29:09.450Z,19.57
2022-12-18T08:31:39.754Z,21.43
2022-12-18T08:34:12.288Z,22.30
2022-12-18T08:36:42.537Z,14.80
2022-12-18T08:39:12.543Z,21.87
2022-12-18T08:41:42.952Z,17.73
2022-12-18T08:44:25.444Z,20.17
2022-12-18T08:46:55.927Z,19.60
2022-12-18T08:49:28.429Z,21.33
2022-12-18T08:51:58.877Z,18.73
2022-12-18T08:54:29.617Z,20.40
2022-12-18T08:56:59.958Z,23.33
2022-12-18T08:59:32.804Z,23.03
2022-12-18T09:02:03.363Z,21.97
2022-12-18T09:04:35.977Z,19.93
2022-12-18T09:07:06.322Z,23.43
2022-12-18T09:09:36.469Z,22.90
2022-12-18T09:12:07.093Z,20.97
2022-12-18T09:14:37.015Z,24.43
2022-12-18T09:17:07.447Z,14.47
2022-12-18T09:19:40.004Z,21.30
2022-12-18T09:22:10.594Z,19.37
2022-12-18T09:24:40.549Z,17.27
2022-12-18T09:27:10.848Z,22.10
2022-12-18T09:29:40.769Z,21.60
2022-12-18T09:32:11.090Z,23.53
2022-12-18T09:34:43.657Z,24.20
2022-12-18T09:37:14.392Z,21.80
2022-12-18T09:39:44.299Z,22.50
2022-12-18T09:42:20.573Z,18.77
2022-12-18T09:44:54.829Z,21.60
2022-12-18T09:47:29.342Z,24.17
2022-12-18T09:50:04.811Z,19.83
2022-12-18T09:52:39.571Z,20.07
2022-12-18T09:55:17.123Z,18.27
2022-12-18T09:57:53.187Z,24.87
2022-12-18T10:00:26.116Z,19.03
2022-12-18T10:03:03.369Z,32.33
2022-12-18T10:05:46.631Z,26.20
2022-12-18T10:08:25.873Z,23.10
2022-12-18T10:10:59.396Z,25.83
2022-12-18T10:13:41.890Z,19.90
2022-12-18T10:16:22.539Z,21.23
2022-12-18T10:19:22.241Z,20.30
2022-12-18T10:22:04.541Z,22.07
2022-12-18T10:24:42.345Z,21.33
2022-12-18T10:27:18.677Z,26.83
2022-12-18T10:29:49.850Z,26.50
2022-12-18T10:32:22.327Z,20.10
2022-12-18T10:35:00.074Z,28.60
2022-12-18T10:37:33.661Z,26.17
2022-12-18T10:40:18.437Z,14.27
2022-12-18T10:42:55.830Z,23.50
2022-12-18T10:45:26.247Z,24.97
2022-12-18T10:47:56.480Z,29.00
2022-12-18T10:51:01.697Z,27.43
2022-12-18T10:53:27.542Z,22.23
2022-12-18T10:55:59.755Z,26.03
2022-12-18T10:58:32.529Z,23.17
2022-12-18T11:01:09.313Z,22.10
2022-12-18T11:03:42.192Z,25.60
2022-12-18T11:06:14.954Z,24.87
2022-12-18T11:09:01.694Z,22.03
2022-12-18T11:11:33.162Z,21.80
2022-12-18T11:14:06.552Z,14.30
2022-12-18T11:16:40.325Z,21.63
2022-12-18T11:19:25.204Z,19.50
2022-12-18T11:21:55.656Z,20.33
2022-12-18T11:24:33.704Z,20.10
2022-12-18T11:27:06.242Z,17.33
2022-12-18T11:29:43.347Z,18.23
2022-12-18T11:32:29.135Z,21.53
2022-12-18T11:35:05.611Z,18.30
2022-12-18T11:37:36.691Z,20.90
2022-12-18T11:40:17.983Z,16.03
2022-12-18T11:42:54.289Z,16.80
2022-12-18T11:45:34.364Z,22.00
2022-12-18T11:48:09.570Z,20.23
2022-12-18T11:50:48.817Z,15.37
2022-12-18T11:53:19.838Z,22.20
2022-12-18T11:56:06.152Z,22.47
2022-12-18T11:58:50.702Z,16.60
2022-12-18T12:01:32.955Z,22.73
2022-12-18T12:04:19.709Z,22.43
2022-12-18T12:07:02.930Z,23.07
2022-12-18T12:09:45.673Z,22.20
2022-12-18T12:12:48.962Z,17.27
2022-12-18T12:15:33.785Z,16.10
2022-12-18T12:18:12.674Z,21.23
2022-12-18T12:20:54.312Z,19.30
2022-12-18T12:23:34.774Z,17.83
2022-12-18T12:26:10.299Z,17.87
2022-12-18T12:29:03.666Z,19.40
2022-12-18T12:31:49.338Z,14.30
2022-12-18T12:34:26.696Z,17.73
2022-12-18T12:37:10.229Z,16.13
2022-12-18T12:39:43.237Z,14.10
2022-12-18T12:42:35.103Z,16.77
2022-12-18T12:45:26.948Z,17.97
2022-12-18T12:48:05.245Z,18.03
2022-12-18T12:50:37.920Z,20.83
2022-12-18T12:53:13.073Z,16.50
2022-12-18T12:55:46.131Z,22.73
2022-12-18T12:58:23.624Z,22.17
2022-12-18T13:01:06.595Z,23.37
2022-12-18T13:03:58.244Z,22.00
2022-12-18T13:06:46.979Z,22.30
2022-12-18T13:09:17.705Z,21.60
2022-12-18T13:12:02.253Z,21.83
2022-12-18T13:14:35.231Z,21.13
2022-12-18T13:17:34.991Z,17.67
2022-12-18T13:20:15.611Z,8.50
2022-12-18T13:22:49.895Z,20.17
2022-12-18T13:25:37.249Z,18.93
2022-12-18T13:28:15.632Z,20.70
2022-12-18T13:30:59.985Z,18.23
2022-12-18T13:34:25.554Z,20.47
2022-12-18T13:36:47.534Z,23.23
2022-12-18T13:39:36.901Z,25.40
2022-12-18T13:42:51.954Z,29.23
2022-12-18T13:45:42.536Z,27.37
2022-12-18T13:48:32.936Z,26.13
2022-12-18T13:51:06.776Z,27.10
2022-12-18T13:53:45.828Z,24.93
2022-12-18T13:56:20.332Z,20.17
2022-12-18T13:59:16.503Z,30.40
2022-12-18T14:01:52.844Z,26.03
2022-12-18T14:04:27.249Z,28.20
2022-12-18T14:07:01.442Z,29.90
2022-12-18T14:09:40.464Z,31.00
2022-12-18T14:12:30.891Z,27.77
2022-12-18T14:15:02.292Z,21.07
2022-12-18T14:17:32.722Z,21.83
2022-12-18T14:20:04.052Z,17.43
2022-12-18T14:22:34.668Z,22.93
2022-12-18T14:25:29.182Z,25.33
2022-12-18T14:28:11.700Z,25.17
2022-12-18T14:30:44.448Z,20.53
2022-12-18T14:33:15.923Z,23.57
2022-12-18T14:35:56.162Z,22.53
2022-12-18T14:38:31.947Z,22.90
2022-12-18T14:41:07.039Z,23.47
2022-12-18T14:43:40.012Z,23.07
2022-12-18T14:46:32.210Z,20.13
2022-12-18T14:49:04.129Z,14.83
2022-12-18T14:51:36.970Z,17.40
2022-12-18T14:54:10.883Z,18.27
2022-12-18T14:56:49.205Z,22.23
2022-12-18T14:59:24.853Z,18.33
2022-12-18T15:02:04.536Z,15.77
2022-12-18T15:04:40.234Z,19.40
2022-12-18T15:07:17.471Z,16.10
2022-12-18T15:10:04.032Z,14.27
2022-12-18T15:12:42.430Z,13.73
2022-12-18T15:15:43.388Z,11.07
2022-12-18T15:18:18.450Z,15.17
2022-12-18T15:20:50.686Z,17.30
2022-12-18T15:23:23.654Z,17.50
2022-12-18T15:26:00.086Z,17.20
2022-12-18T15:28:40.564Z,19.67
2022-12-18T15:31:26.891Z,15.30
2022-12-18T15:34:16.047Z,15.63
2022-12-18T15:36:46.045Z,12.50
2022-12-18T15:39:16.949Z,13.90
2022-12-18T15:42:07.369Z,8.87
2022-12-18T15:44:38.415Z,11.90
2022-12-18T15:47:14.696Z,12.83
2022-12-18T15:49:44.972Z,13.27
2022-12-18T15:52:26.968Z,16.57
2022-12-18T15:55:09.916Z,13.10
2022-12-18T15:57:39.849Z,14.77
2022-12-18T16:00:16.229Z,25.67
2022-12-18T16:02:46.422Z,19.27
2022-12-18T16:05:20.099Z,15.53
2022-12-18T16:07:50.420Z,18.67
2022-12-18T16:10:20.753Z,17.00
2022-12-18T16:12:51.522Z,10.17
2022-12-18T16:15:25.086Z,16.23
2022-12-18T16:17:55.491Z,17.00
2022-12-18T16:20:26.462Z,16.83
2022-12-18T16:22:56.540Z,18.37
2022-12-18T16:25:28.822Z,17.43
2022-12-18T16:28:00.009Z,15.37
2022-12-18T16:30:38.079Z,17.50
2022-12-18T16:33:08.589Z,17.23
2022-12-18T16:35:38.842Z,18.33
2022-12-18T16:38:08.827Z,18.57
2022-12-18T16:40:59.250Z,25.73
2022-12-18T16:43:29.149Z,19.77
2022-12-18T16:46:02.777Z,19.57
2022-12-18T16:48:32.891Z,20.90
2022-12-18T16:51:05.331Z,19.93
2022-12-18T16:53:36.659Z,20.43
2022-12-18T16:56:07.489Z,20.30
2022-12-18T16:58:37.474Z,19.87
2022-12-18T17:01:13.960Z,20.30
2022-12-18T17:03:44.762Z,19.57
2022-12-18T17:06:16.982Z,20.70
2022-12-18T17:08:48.801Z,22.43
2022-12-18T17:11:19.215Z,20.70
2022-12-18T17:13:49.122Z,20.27
2022-12-18T17:16:22.610Z,23.30
2022-12-18T17:18:53.069Z,20.27
2022-12-18T17:21:23.483Z,20.63
2022-12-18T17:23:53.398Z,19.47
2022-12-18T17:26:24.008Z,20.57
2022-12-18T17:28:54.343Z,21.80
2022-12-18T17:31:29.759Z,20.90
2022-12-18T17:34:00.172Z,20.77
2022-12-18T17:36:32.007Z,19.90
2022-12-18T17:39:04.177Z,19.27
2022-12-18T17:41:35.334Z,19.60
2022-12-18T17:44:07.045Z,23.77
2022-12-18T17:46:40.303Z,23.90
2022-12-18T17:49:10.886Z,21.40
2022-12-18T17:51:42.999Z,21.47
2022-12-18T17:54:13.965Z,22.00
2022-12-18T17:56:44.538Z,23.63
2022-12-18T17:59:15.088Z,21.97
2022-12-18T18:01:48.663Z,23.63
2022-12-18T18:04:19.038Z,22.93
2022-12-18T18:06:51.077Z,23.00
2022-12-18T18:09:21.067Z,21.80
2022-12-18T18:12:03.841Z,22.57
2022-12-18T18:14:34.546Z,21.37
2022-12-18T18:17:07.469Z,23.60
2022-12-18T18:19:37.447Z,25.80
2022-12-18T18:22:10.443Z,23.97
2022-12-18T18:24:40.983Z,25.23
2022-12-18T18:27:11.284Z,27.77
2022-12-18T18:29:42.293Z,24.93
2022-12-18T18:32:15.204Z,23.73
2022-12-18T18:34:45.157Z,23.33
2022-12-18T18:37:15.489Z,25.63
2022-12-18T18:39:48.037Z,25.13
2022-12-18T18:42:18.406Z,25.00
2022-12-18T18:44:49.161Z,25.30
2022-12-18T18:47:22.218Z,23.23
2022-12-18T18:49:52.122Z,25.40
2022-12-18T18:52:22.371Z,26.67
2022-12-18T18:55:12.354Z,25.33
2022-12-18T18:57:57.910Z,24.83
2022-12-18T19:00:28.870Z,25.83
2022-12-18T19:03:01.889Z,25.53
2022-12-18T19:05:34.446Z,23.47
2022-12-18T19:08:04.802Z,29.10
2022-12-18T19:10:34.738Z,26.23
2022-12-18T19:13:17.516Z,26.33
2022-12-18T19:15:47.605Z,25.20
2022-12-18T19:18:21.093Z,25.07
2022-12-18T19:20:58.840Z,24.97
2022-12-18T19:23:29.591Z,24.40
2022-12-18T19:26:17.046Z,25.83
2022-12-18T19:28:53.524Z,24.40
2022-12-18T19:31:31.769Z,23.07
2022-12-18T19:34:09.775Z,25.97
2022-12-18T19:36:42.143Z,25.23
2022-12-18T19:39:15.030Z,24.50
2022-12-18T19:41:45.834Z,25.80
2022-12-18T19:44:19.571Z,24.17
2022-12-18T19:46:53.214Z,24.90
2022-12-18T19:49:26.050Z,24.43
2022-12-18T19:51:56.109Z,26.10
2022-12-18T19:54:26.460Z,26.43
2022-12-18T19:56:56.497Z,25.23
2022-12-18T19:59:27.207Z,24.27
2022-12-18T20:01:57.447Z,23.27
2022-12-18T20:04:31.991Z,25.10
2022-12-18T20:07:02.010Z,23.97
2022-12-18T20:09:32.829Z,26.23
2022-12-18T20:12:03.431Z,24.60
2022-12-18T20:14:33.945Z,28.13
2022-12-18T20:17:04.205Z,20.93
2022-12-18T20:19:38.475Z,25.43
2022-12-18T20:22:08.769Z,25.07
2022-12-18T20:24:39.203Z,24.33
2022-12-18T20:27:14.538Z,24.77
2022-12-18T20:29:46.694Z,22.77
2022-12-18T20:32:16.696Z,26.00
2022-12-18T20:34:49.955Z,25.67
2022-12-18T20:37:20.753Z,23.17
2022-12-18T20:39:51.746Z,23.83
2022-12-18T20:42:21.836Z,23.30
2022-12-18T20:44:52.135Z,25.60
2022-12-18T20:47:22.329Z,25.33
2022-12-18T20:49:55.801Z,22.43
2022-12-18T20:52:25.772Z,27.27
2022-12-18T20:54:56.225Z,20.93
2022-12-18T20:57:28.891Z,24.23
2022-12-18T20:59:59.265Z,21.93
2022-12-18T21:02:29.430Z,24.30
2022-12-18T21:05:02.737Z,19.27
2022-12-18T21:07:32.956Z,25.03
2022-12-18T21:10:03.393Z,21.53
2022-12-18T21:12:50.935Z,24.00
2022-12-18T21:15:29.193Z,23.57
2022-12-18T21:17:59.270Z,23.70
2022-12-18T21:20:32.100Z,23.67
2022-12-18T21:23:15.860Z,21.43
2022-12-18T21:25:47.587Z,24.67
2022-12-18T21:28:21.939Z,22.33
2022-12-18T21:30:52.476Z,22.60
2022-12-18T21:33:22.458Z,23.13
2022-12-18T21:35:55.473Z,19.80
2022-12-18T21:38:26.033Z,20.50
2022-12-18T21:40:56.360Z,18.93
2022-12-18T21:43:53.674Z,21.33
2022-12-18T21:46:24.064Z,22.43
2022-12-18T21:48:54.161Z,20.73
2022-12-18T21:51:27.241Z,22.57
2022-12-18T21:53:57.593Z,21.67
2022-12-18T21:56:28.126Z,21.37
2022-12-18T21:58:58.125Z,20.40
2022-12-18T22:01:30.600Z,22.97
2022-12-18T22:04:07.464Z,21.43
2022-12-18T22:06:43.422Z,22.80
2022-12-18T22:09:20.917Z,23.70
2022-12-18T22:11:52.251Z,23.53
2022-12-18T22:14:23.231Z,22.53
2022-12-18T22:16:55.946Z,22.47
2022-12-18T22:19:27.489Z,21.67
2022-12-18T22:22:00.473Z,22.70
2022-12-18T22:24:31.360Z,22.70
2022-12-18T22:27:02.520Z,19.17
2022-12-18T22:29:46.861Z,22.57
2022-12-18T22:32:30.536Z,22.03
2022-12-18T22:35:06.820Z,21.03
2022-12-18T22:37:42.246Z,21.67
2022-12-18T22:40:23.858Z,22.40
2022-12-18T22:42:56.398Z,19.23
2022-12-18T22:45:27.972Z,21.83
2022-12-18T22:47:58.390Z,19.97
2022-12-18T22:50:28.593Z,16.20
2022-12-18T22:53:04.662Z,21.90
2022-12-18T22:55:34.704Z,20.43
2022-12-18T22:58:04.974Z,20.40
2022-12-18T23:00:34.941Z,21.67
2022-12-18T23:03:05.376Z,19.73
2022-12-18T23:05:37.316Z,21.07
2022-12-18T23:08:27.234Z,19.40
2022-12-18T23:10:59.770Z,20.70
2022-12-18T23:13:30.937Z,20.33
2022-12-18T23:16:03.706Z,21.57
2022-12-18T23:18:33.987Z,21.27
2022-12-18T23:21:08.496Z,20.17
2022-12-18T23:23:42.041Z,19.53
2022-12-18T23:26:14.519Z,21.50
2022-12-18T23:28:47.506Z,20.00
2022-12-18T23:31:20.679Z,17.47
2022-12-18T23:33:54.881Z,19.63
2022-12-18T23:36:26.388Z,20.40
2022-12-18T23:39:01.769Z,19.87
2022-12-18T23:41:37.655Z,18.23
2022-12-18T23:44:10.239Z,16.70
2022-12-18T23:46:43.857Z,17.60
2022-12-18T23:49:39.460Z,18.43
2022-12-18T23:52:14.805Z,17.40
2022-12-18T23:54:48.886Z,18.97
2022-12-18T23:57:19.025Z,19.23
2022-12-18T23:59:52.021Z,18.47
